createdAt,value
2023-01-13T00:01:25.128Z,95571.41
2023-01-13T00:04:28.348Z,95593.91
2023-01-13T00:07:32.061Z,95595.09
2023-01-13T00:10:35.927Z,95593.91
2023-01-13T00:13:39.853Z,95601.72
2023-01-13T00:16:43.524Z,95606.81
2023-01-13T00:19:47.503Z,95600.75
2023-01-13T00:22:51.226Z,95614.88
2023-01-13T00:25:58.175Z,95612.94
2023-01-13T00:29:01.816Z,95626.06
2023-01-13T00:32:06.689Z,95633.00
2023-01-13T00:35:10.471Z,95629.53
2023-01-13T00:38:14.525Z,95623.16
2023-01-13T00:41:20.733Z,95626.63
2023-01-13T00:44:24.497Z,95625.38
2023-01-13T00:47:28.138Z,95628.22
2023-01-13T00:50:32.017Z,95622.41
2023-01-13T00:53:38.808Z,95631.63
2023-01-13T00:56:42.474Z,95631.63
2023-01-13T00:59:46.183Z,95634.56
2023-01-13T01:02:50.908Z,95634.03
2023-01-13T01:05:54.202Z,95637.59
2023-01-13T01:08:58.401Z,95633.13
2023-01-13T01:12:02.425Z,95640.44
2023-01-13T01:15:10.559Z,95649.47
2023-01-13T01:18:14.411Z,95656.50
2023-01-13T01:21:18.181Z,95660.28
2023-01-13T01:24:21.599Z,95657.28
2023-01-13T01:27:25.983Z,95660.94
2023-01-13T01:30:29.560Z,95663.31
2023-01-13T01:33:33.690Z,95670.91
2023-01-13T01:36:37.620Z,95681.78
2023-01-13T01:39:40.585Z,95668.69
2023-01-13T01:43:02.827Z,95656.19
2023-01-13T01:46:06.695Z,95649.75
2023-01-13T01:49:26.882Z,95646.34
2023-01-13T01:52:58.265Z,95656.59
2023-01-13T01:56:03.097Z,95648.94
2023-01-13T01:59:06.831Z,95653.81
2023-01-13T02:02:10.803Z,95652.66
2023-01-13T02:05:15.521Z,95669.56
2023-01-13T02:08:19.600Z,95655.44
2023-01-13T02:11:55.762Z,95653.25
2023-01-13T02:15:22.300Z,95642.59
2023-01-13T02:19:02.214Z,95654.59
2023-01-13T02:22:08.984Z,95659.38
2023-01-13T02:25:42.750Z,95651.38
2023-01-13T02:29:43.054Z,95653.09
2023-01-13T02:32:52.183Z,95665.00
2023-01-13T02:35:55.157Z,95663.44
2023-01-13T02:39:05.378Z,95661.03
2023-01-13T02:42:32.604Z,95660.53
2023-01-13T02:45:47.338Z,95658.06
2023-01-13T02:48:53.387Z,95656.41
2023-01-13T02:52:05.503Z,95662.75
2023-01-13T02:55:16.294Z,95657.97
2023-01-13T02:58:25.285Z,95657.84
2023-01-13T03:01:29.728Z,95650.34
2023-01-13T03:04:52.193Z,95644.53
2023-01-13T03:08:02.065Z,95654.00
2023-01-13T03:11:12.478Z,95648.69
2023-01-13T03:14:22.341Z,95640.91
2023-01-13T03:17:39.811Z,95645.88
2023-01-13T03:20:53.865Z,95651.16
2023-01-13T03:24:08.354Z,95651.88
2023-01-13T03:27:17.507Z,95642.16
2023-01-13T03:30:42.729Z,95638.47
2023-01-13T03:33:51.275Z,95641.22
2023-01-13T03:36:56.872Z,95646.88
2023-01-13T03:40:04.776Z,95642.91
2023-01-13T03:43:33.192Z,95634.47
2023-01-13T03:46:48.642Z,95636.19
2023-01-13T03:50:32.538Z,95643.50
2023-01-13T03:53:50.050Z,95641.28
2023-01-13T03:57:02.451Z,95635.78
2023-01-13T04:00:07.955Z,95628.16
2023-01-13T04:03:39.429Z,95625.19
2023-01-13T04:06:56.218Z,95623.72
2023-01-13T04:10:03.415Z,95621.13
2023-01-13T04:13:11.756Z,95616.75
2023-01-13T04:16:15.372Z,95607.56
2023-01-13T04:19:19.100Z,95617.72
2023-01-13T04:22:22.713Z,95613.69
2023-01-13T04:25:26.412Z,95615.00
2023-01-13T04:28:29.340Z,95613.25
2023-01-13T04:31:33.298Z,95614.16
2023-01-13T04:34:36.423Z,95604.72
2023-01-13T04:37:41.343Z,95596.16
2023-01-13T04:40:44.630Z,95595.56
2023-01-13T04:43:47.751Z,95591.56
2023-01-13T04:46:50.670Z,95584.50
2023-01-13T04:49:54.062Z,95586.69
2023-01-13T04:52:57.979Z,95580.41
2023-01-13T04:56:01.334Z,95578.97
2023-01-13T04:59:04.982Z,95581.97
2023-01-13T05:02:10.296Z,95582.47
2023-01-13T05:05:14.046Z,95571.47
2023-01-13T05:08:18.142Z,95573.59
2023-01-13T05:11:40.103Z,95562.75
2023-01-13T05:15:02.789Z,95570.56
2023-01-13T05:18:06.038Z,95565.06
2023-01-13T05:21:29.867Z,95559.56
2023-01-13T05:24:52.150Z,95563.06
2023-01-13T05:27:58.106Z,95550.69
2023-01-13T05:31:01.508Z,95549.53
2023-01-13T05:34:05.716Z,95553.50
2023-01-13T05:37:11.605Z,95545.78
2023-01-13T05:40:36.926Z,95541.44
2023-01-13T05:43:39.941Z,95537.84
2023-01-13T05:46:43.393Z,95540.06
2023-01-13T05:49:47.051Z,95540.06
2023-01-13T05:52:50.628Z,95536.97
2023-01-13T05:55:54.754Z,95538.38
2023-01-13T05:58:58.646Z,95534.97
2023-01-13T06:02:01.881Z,95525.44
2023-01-13T06:05:05.872Z,95523.78
2023-01-13T06:08:09.142Z,95530.53
2023-01-13T06:11:12.379Z,95534.34
2023-01-13T06:14:16.155Z,95525.28
2023-01-13T06:17:20.187Z,95525.66
2023-01-13T06:20:23.455Z,95530.25
2023-01-13T06:23:27.007Z,95523.34
2023-01-13T06:26:35.202Z,95516.50
2023-01-13T06:29:39.375Z,95513.47
2023-01-13T06:32:47.188Z,95514.22
2023-01-13T06:35:56.823Z,95515.69
2023-01-13T06:39:03.269Z,95508.06
2023-01-13T06:42:25.754Z,95507.09
2023-01-13T06:45:32.045Z,95514.72
2023-01-13T06:48:36.247Z,95517.69
2023-01-13T06:51:39.090Z,95513.03
2023-01-13T06:54:44.020Z,95521.53
2023-01-13T06:57:51.273Z,95522.28
2023-01-13T07:00:54.811Z,95527.09
2023-01-13T07:03:58.785Z,95521.53
2023-01-13T07:07:02.143Z,95524.91
2023-01-13T07:10:06.053Z,95523.06
2023-01-13T07:13:27.829Z,95523.00
2023-01-13T07:16:30.802Z,95527.84
2023-01-13T07:19:34.932Z,95535.56
2023-01-13T07:22:38.671Z,95519.81
2023-01-13T07:25:42.369Z,95520.25
2023-01-13T07:28:46.116Z,95521.38
2023-01-13T07:31:50.554Z,95522.44
2023-01-13T07:34:54.254Z,95514.19
2023-01-13T07:37:58.173Z,95512.63
2023-01-13T07:41:21.639Z,95512.72
2023-01-13T07:44:25.434Z,95515.69
2023-01-13T07:47:29.447Z,95513.81
2023-01-13T07:50:33.488Z,95510.44
2023-01-13T07:53:37.755Z,95513.38
2023-01-13T07:56:41.701Z,95513.91
2023-01-13T07:59:45.230Z,95513.97
2023-01-13T08:02:49.245Z,95507.00
2023-01-13T08:05:52.733Z,95506.53
2023-01-13T08:08:56.380Z,95514.72
2023-01-13T08:12:17.513Z,95517.03
2023-01-13T08:15:20.822Z,95509.00
2023-01-13T08:18:23.878Z,95510.56
2023-01-13T08:21:26.850Z,95510.53
2023-01-13T08:24:30.271Z,95510.38
2023-01-13T08:27:33.352Z,95504.16
2023-01-13T08:30:37.150Z,95514.03
2023-01-13T08:33:41.444Z,95511.56
2023-01-13T08:36:45.072Z,95512.78
2023-01-13T08:39:49.725Z,95524.84
2023-01-13T08:42:54.441Z,95512.09
2023-01-13T08:46:05.439Z,95514.44
2023-01-13T08:49:09.374Z,95515.59
2023-01-13T08:52:14.083Z,95520.97
2023-01-13T08:55:18.051Z,95517.56
2023-01-13T08:58:21.288Z,95513.56
2023-01-13T09:01:25.858Z,95521.16
2023-01-13T09:04:30.548Z,95510.38
2023-01-13T09:07:35.811Z,95511.50
2023-01-13T09:10:57.398Z,95521.97
2023-01-13T09:14:03.201Z,95518.31
2023-01-13T09:17:07.993Z,95509.44
2023-01-13T09:20:12.222Z,95510.00
2023-01-13T09:23:15.646Z,95511.88
2023-01-13T09:26:21.929Z,95522.69
2023-01-13T09:29:25.914Z,95515.50
2023-01-13T09:32:29.586Z,95522.50
2023-01-13T09:35:33.582Z,95516.81
2023-01-13T09:38:36.554Z,95521.56
2023-01-13T09:42:05.284Z,95510.97
2023-01-13T09:45:17.151Z,95511.13
2023-01-13T09:48:23.738Z,95515.09
2023-01-13T09:51:40.395Z,95519.09
2023-01-13T09:54:47.491Z,95508.06
2023-01-13T09:57:51.108Z,95510.72
2023-01-13T10:01:30.873Z,95511.88
2023-01-13T10:04:34.726Z,95517.94
2023-01-13T10:07:41.041Z,95513.19
2023-01-13T10:10:50.803Z,95513.41
2023-01-13T10:13:59.732Z,95507.50
2023-01-13T10:17:25.169Z,95513.97
2023-01-13T10:20:37.926Z,95511.09
2023-01-13T10:24:10.099Z,95509.41
2023-01-13T10:27:28.439Z,95508.84
2023-01-13T10:30:39.776Z,95515.47
2023-01-13T10:33:42.933Z,95508.66
2023-01-13T10:37:14.245Z,95510.72
2023-01-13T10:40:19.211Z,95519.66
2023-01-13T10:43:23.014Z,95508.81
2023-01-13T10:46:28.061Z,95522.50
2023-01-13T10:49:34.182Z,95519.28
2023-01-13T10:52:44.043Z,95511.69
2023-01-13T10:56:00.665Z,95520.75
2023-01-13T10:59:23.508Z,95521.88
2023-01-13T11:02:30.624Z,95525.13
2023-01-13T11:05:34.442Z,95518.66
2023-01-13T11:08:46.516Z,95518.63
2023-01-13T11:11:56.890Z,95514.66
2023-01-13T11:15:09.456Z,95508.41
2023-01-13T11:18:37.038Z,95519.78
2023-01-13T11:22:04.050Z,95522.81
2023-01-13T11:25:16.189Z,95508.78
2023-01-13T11:28:38.834Z,95512.72
2023-01-13T11:31:49.450Z,95520.56
2023-01-13T11:35:02.491Z,95519.09
2023-01-13T11:38:15.655Z,95522.03
2023-01-13T11:41:28.029Z,95514.31
2023-01-13T11:44:42.431Z,95509.13
2023-01-13T11:47:51.936Z,95511.13
2023-01-13T11:51:05.540Z,95515.47
2023-01-13T11:54:27.273Z,95517.16
2023-01-13T11:57:42.990Z,95519.50
2023-01-13T12:01:25.100Z,95510.84
2023-01-13T12:04:34.221Z,95504.97
2023-01-13T12:07:59.619Z,95516.41
2023-01-13T12:11:15.067Z,95503.59
2023-01-13T12:14:37.006Z,95502.41
2023-01-13T12:17:43.537Z,95504.94
2023-01-13T12:21:17.763Z,95502.00
2023-01-13T12:24:24.575Z,95496.19
2023-01-13T12:28:00.825Z,95501.31
2023-01-13T12:31:04.901Z,95503.91
2023-01-13T12:34:11.942Z,95498.09
2023-01-13T12:37:27.900Z,95501.38
2023-01-13T12:40:55.503Z,95495.69
2023-01-13T12:44:18.265Z,95492.63
2023-01-13T12:47:44.208Z,95478.59
2023-01-13T12:51:01.679Z,95477.97
2023-01-13T12:54:31.250Z,95472.88
2023-01-13T12:57:35.627Z,95467.38
2023-01-13T13:00:42.407Z,95467.22
2023-01-13T13:04:09.522Z,95463.22
2023-01-13T13:07:27.355Z,95463.47
2023-01-13T13:10:38.753Z,95466.56
2023-01-13T13:13:46.511Z,95458.16
2023-01-13T13:16:53.816Z,95463.31
2023-01-13T13:19:58.356Z,95457.03
2023-01-13T13:23:02.259Z,95457.25
2023-01-13T13:26:21.405Z,95452.75
2023-01-13T13:29:51.420Z,95451.53
2023-01-13T13:33:09.292Z,95448.41
2023-01-13T13:36:51.509Z,95451.50
2023-01-13T13:40:14.209Z,95438.53
2023-01-13T13:43:36.615Z,95449.47
2023-01-13T13:46:49.616Z,95435.63
2023-01-13T13:49:57.785Z,95436.25
2023-01-13T13:53:05.930Z,95432.81
2023-01-13T13:56:20.866Z,95433.22
2023-01-13T13:59:27.936Z,95437.94
2023-01-13T14:02:35.454Z,95431.09
2023-01-13T14:05:39.461Z,95430.81
2023-01-13T14:08:50.143Z,95426.78
2023-01-13T14:11:59.303Z,95427.50
2023-01-13T14:15:04.327Z,95432.59
2023-01-13T14:18:15.056Z,95422.94
2023-01-13T14:21:24.755Z,95414.59
2023-01-13T14:24:29.537Z,95421.97
2023-01-13T14:27:34.859Z,95425.28
2023-01-13T14:30:39.162Z,95415.28
2023-01-13T14:33:51.517Z,95420.94
2023-01-13T14:36:55.829Z,95419.03
2023-01-13T14:39:59.617Z,95417.50
2023-01-13T14:43:16.777Z,95413.16
2023-01-13T14:46:23.698Z,95410.03
2023-01-13T14:49:42.271Z,95413.38
2023-01-13T14:52:57.759Z,95404.78
2023-01-13T14:56:01.973Z,95407.69
2023-01-13T14:59:34.040Z,95395.94
2023-01-13T15:02:41.071Z,95405.91
2023-01-13T15:05:50.263Z,95401.56
2023-01-13T15:08:54.668Z,95396.06
2023-01-13T15:12:17.652Z,95399.81
2023-01-13T15:15:38.076Z,95403.16
2023-01-13T15:18:42.167Z,95398.13
2023-01-13T15:21:46.533Z,95392.22
2023-01-13T15:24:50.751Z,95381.88
2023-01-13T15:27:54.500Z,95377.22
2023-01-13T15:31:04.171Z,95376.78
2023-01-13T15:34:08.414Z,95377.91
2023-01-13T15:37:12.130Z,95384.66
2023-01-13T15:40:20.154Z,95376.78
2023-01-13T15:43:42.886Z,95377.88
2023-01-13T15:46:46.986Z,95373.38
2023-01-13T15:49:50.810Z,95375.81
2023-01-13T15:52:54.799Z,95370.91
2023-01-13T15:56:00.550Z,95368.66
2023-01-13T15:59:06.057Z,95371.38
2023-01-13T16:02:23.249Z,95363.47
2023-01-13T16:05:27.339Z,95360.56
2023-01-13T16:08:31.633Z,95357.31
2023-01-13T16:11:35.292Z,95355.88
2023-01-13T16:14:39.220Z,95347.50
2023-01-13T16:17:45.334Z,95344.97
2023-01-13T16:20:53.389Z,95352.31
2023-01-13T16:23:57.139Z,95340.66
2023-01-13T16:27:00.826Z,95347.69
2023-01-13T16:30:04.693Z,95337.72
2023-01-13T16:33:07.598Z,95330.13
2023-01-13T16:36:20.958Z,95333.75
2023-01-13T16:39:25.996Z,95326.16
2023-01-13T16:42:30.054Z,95327.84
2023-01-13T16:45:35.115Z,95316.91
2023-01-13T16:48:38.835Z,95314.91
2023-01-13T16:51:44.350Z,95307.34
2023-01-13T16:54:48.078Z,95308.84
2023-01-13T16:57:52.381Z,95316.63
2023-01-13T17:00:56.098Z,95316.63
2023-01-13T17:04:00.229Z,95317.91
2023-01-13T17:07:08.783Z,95318.06
2023-01-13T17:10:18.578Z,95319.00
2023-01-13T17:13:22.910Z,95317.25
2023-01-13T17:16:27.072Z,95313.09
2023-01-13T17:19:31.097Z,95310.06
2023-01-13T17:22:34.793Z,95316.84
2023-01-13T17:25:38.493Z,95312.78
2023-01-13T17:28:47.179Z,95306.34
2023-01-13T17:31:52.033Z,95308.69
2023-01-13T17:34:56.158Z,95303.22
2023-01-13T17:37:59.759Z,95301.88
2023-01-13T17:41:05.285Z,95304.44
2023-01-13T17:44:10.772Z,95295.50
2023-01-13T17:47:15.200Z,95289.78
2023-01-13T17:50:18.915Z,95297.66
2023-01-13T17:53:22.782Z,95283.34
2023-01-13T17:56:26.505Z,95285.91
2023-01-13T17:59:30.555Z,95281.44
2023-01-13T18:02:34.220Z,95278.34
2023-01-13T18:05:39.324Z,95269.97
2023-01-13T18:08:42.993Z,95270.69
2023-01-13T18:11:47.479Z,95271.94
2023-01-13T18:14:51.255Z,95272.97
2023-01-13T18:17:55.305Z,95269.34
2023-01-13T18:21:17.554Z,95266.66
2023-01-13T18:24:40.142Z,95256.94
2023-01-13T18:27:43.133Z,95252.91
2023-01-13T18:30:46.641Z,95251.22
2023-01-13T18:33:50.808Z,95241.16
2023-01-13T18:36:54.503Z,95237.50
2023-01-13T18:39:58.132Z,95239.63
2023-01-13T18:43:02.501Z,95237.44
2023-01-13T18:46:06.216Z,95234.22
2023-01-13T18:49:10.170Z,95235.78
2023-01-13T18:52:13.614Z,95229.28
2023-01-13T18:55:17.770Z,95229.13
2023-01-13T18:58:21.111Z,95231.81
2023-01-13T19:01:26.672Z,95224.91
2023-01-13T19:04:29.939Z,95212.97
2023-01-13T19:07:35.689Z,95210.09
2023-01-13T19:10:40.261Z,95208.50
2023-01-13T19:13:44.135Z,95209.66
2023-01-13T19:16:48.026Z,95203.50
2023-01-13T19:19:56.202Z,95192.47
2023-01-13T19:22:59.737Z,95194.63
2023-01-13T19:26:08.897Z,95186.56
2023-01-13T19:29:11.806Z,95185.41
2023-01-13T19:32:16.231Z,95175.34
2023-01-13T19:35:20.605Z,95177.38
2023-01-13T19:38:25.497Z,95174.16
2023-01-13T19:41:47.272Z,95168.25
2023-01-13T19:45:10.302Z,95158.22
2023-01-13T19:48:16.762Z,95156.03
2023-01-13T19:51:20.753Z,95157.78
2023-01-13T19:54:24.580Z,95149.53
2023-01-13T19:57:28.785Z,95160.66
2023-01-13T20:00:32.470Z,95153.22
2023-01-13T20:03:38.616Z,95139.72
2023-01-13T20:06:42.240Z,95138.44
2023-01-13T20:09:46.095Z,95131.41
2023-01-13T20:12:49.542Z,95124.69
2023-01-13T20:15:53.481Z,95118.19
2023-01-13T20:18:57.720Z,95119.69
2023-01-13T20:22:01.627Z,95117.03
2023-01-13T20:25:05.897Z,95109.94
2023-01-13T20:28:09.407Z,95107.75
2023-01-13T20:31:14.106Z,95100.84
2023-01-13T20:34:21.146Z,95090.03
2023-01-13T20:37:24.814Z,95088.41
2023-01-13T20:40:28.303Z,95080.03
2023-01-13T20:43:32.021Z,95074.72
2023-01-13T20:46:36.279Z,95082.13
2023-01-13T20:49:39.202Z,95080.44
2023-01-13T20:52:42.717Z,95074.53
2023-01-13T20:55:45.674Z,95066.97
2023-01-13T20:58:48.688Z,95061.47
2023-01-13T21:01:51.671Z,95067.53
2023-01-13T21:04:54.583Z,95068.53
2023-01-13T21:07:57.422Z,95068.25
2023-01-13T21:11:04.897Z,95060.84
2023-01-13T21:14:36.235Z,95057.72
2023-01-13T21:17:59.072Z,95059.63
2023-01-13T21:21:11.985Z,95066.13
2023-01-13T21:24:15.346Z,95064.94
2023-01-13T21:27:18.402Z,95068.22
2023-01-13T21:30:22.440Z,95066.06
2023-01-13T21:33:25.294Z,95056.59
2023-01-13T21:36:28.917Z,95055.66
2023-01-13T21:39:31.758Z,95056.00
2023-01-13T21:42:53.062Z,95048.97
2023-01-13T21:46:14.855Z,95044.81
2023-01-13T21:49:18.764Z,95049.41
2023-01-13T21:52:25.878Z,95050.72
2023-01-13T21:55:30.798Z,95044.81
2023-01-13T21:58:33.711Z,95034.16
2023-01-13T22:01:37.618Z,95023.88
2023-01-13T22:05:02.642Z,95015.91
2023-01-13T22:08:06.156Z,95010.88
2023-01-13T22:11:08.938Z,95016.78
2023-01-13T22:14:14.840Z,95019.13
2023-01-13T22:17:18.363Z,95004.13
2023-01-13T22:20:22.596Z,94996.69
2023-01-13T22:23:26.309Z,94999.22
2023-01-13T22:26:30.623Z,94985.28
2023-01-13T22:29:34.628Z,94982.53
2023-01-13T22:32:39.740Z,94982.75
2023-01-13T22:35:42.948Z,94981.66
2023-01-13T22:38:47.161Z,94985.16
2023-01-13T22:41:50.784Z,94984.97
2023-01-13T22:44:54.725Z,94977.31
2023-01-13T22:47:59.032Z,94979.66
2023-01-13T22:51:10.646Z,94984.19
2023-01-13T22:54:15.210Z,94988.59
2023-01-13T22:57:18.913Z,94983.16
2023-01-13T23:00:22.971Z,95001.31
2023-01-13T23:03:26.806Z,95000.81
2023-01-13T23:06:31.746Z,94999.13
2023-01-13T23:09:35.333Z,94994.75
2023-01-13T23:12:39.475Z,94991.88
2023-01-13T23:15:43.136Z,94992.47
2023-01-13T23:18:48.568Z,94991.22
2023-01-13T23:21:52.201Z,94984.25
2023-01-13T23:24:55.875Z,94988.97
2023-01-13T23:27:59.523Z,94984.72
2023-01-13T23:31:11.535Z,94989.59
2023-01-13T23:34:15.352Z,95000.81
2023-01-13T23:37:19.714Z,94998.72
2023-01-13T23:40:23.188Z,95002.06
2023-01-13T23:43:27.733Z,94993.38
2023-01-13T23:46:33.539Z,94994.59
2023-01-13T23:49:37.492Z,95013.03
2023-01-13T23:52:41.160Z,95005.72
2023-01-13T23:55:45.123Z,94995.03
2023-01-13T23:58:49.805Z,95008.44
